EGPS weather

Peterhead Heliport
Peterhead, Scotland, United Kingdom

Public forecast

Using degrees Celsius for public forecast. Weather courtesy of forecast.io.

Closest aviation weather report (METAR) to Peterhead Heliport

Closest report is Aberdeen Dyce Airport, 21.9 nm (40.5 km) SSW. Retrieved 2020/02/18 12:20 UTC (0 seconds ago):

EGPD 181220Z AUTO 23015G25KT 9999 NCD 05/01 Q0999

Closest aviation forecast (TAF) to Peterhead Heliport

Closest forecast is Aberdeen Dyce Airport, 21.9 nm (40.5 km) SSW. Retrieved 2020/02/18 12:00 UTC (13 minutes ago):

TAF EGPD 181100Z 1812/1912 23012KT 9999 FEW025 PROB30 TEMPO 1821/1824 8000 -SHRASN BECMG 1822/1901 28020G32KT BECMG 1906/1909 23009KT